• Join FlightAware (Why Join?)
  • Login
  • US Flag 
03:23AM EDT


 

Airport Tracker/Info


-or-


 

Live Flight TrackerFlight Track Log ✈ SKW6195 ✈ 18-Sep-2013 ✈ KBZN - KDEN

Flight Track Log - Related Links

Times and Time Zones

All times are in EDT time to prevent confusion due to time zone crossing. See the SKW6195 flight status page for this flight to view local times or setup timezone preferences in your user account.

Time Position Orientation Groundspeed Altitude Reporting Facility
EDT Latitude Longitude Course Direction KTS MPH feet Rate Location/Type
03:52PM 45.7986 -111.1811 332° Northwest 156 180 5,300  Level Salt Lake Center
03:52PM 45.6961 -111.1328 162° South 201 231 6,100 1,920 Climbing Salt Lake Center
03:53PM 45.7878 -111.2508 318° Northwest 217 250 7,300 2,460 Climbing Salt Lake Center
03:53PM 45.6450 -111.1919 164° South 252 290 8,600 1,980 Climbing Salt Lake Center
03:54PM 45.7211 -111.2633 327° Northwest 275 316 9,400 2,280 Climbing Salt Lake Center
03:54PM 45.5767 -111.1522 152° Southeast 311 358 10,700 2,580 Climbing Salt Lake Center
03:55PM 45.4307 -110.7230 145° Southeast  Level Estimated
03:55PM 45.6439 -111.1922 337° Northwest 304 350 12,100  Level Salt Lake Center
03:55PM 45.5144 -111.0592 144° Southeast 332 382 13,000 1,980 Climbing Salt Lake Center
03:56PM 45.3501 -110.6236 139° Southeast  Level FlightAware Approximate
03:56PM 45.6311 -111.0647 358° North 334 384 14,200  Level Salt Lake Center
03:56PM 45.5189 -110.9333 141° Southeast 348 400 15,100 2,220 Climbing Salt Lake Center
03:57PM 45.2691 -110.5249 150° Southeast  Level Estimated
03:57PM 45.6389 -110.9275 North 342 394 16,500  Level Salt Lake Center
03:57PM 45.5242 -110.7944 141° Southeast 346 398 17,200 1,800 Climbing Salt Lake Center
03:58PM 45.6306 -110.7922 North 343 395 18,400 1,740 Climbing Salt Lake Center
03:58PM 45.4806 -110.6819 153° Southeast 345 397 19,000 1,800 Climbing Salt Lake Center
03:59PM 45.5522 -110.7133 343° North 339 390 20,300 1,740 Climbing Salt Lake Center
03:59PM 45.4050 -110.6156 155° Southeast 338 389 20,800 1,500 Climbing Salt Lake Center
04:00PM 45.4708 -110.6369 347° North 342 394 21,900 1,680 Climbing Salt Lake Center
04:00PM 45.3231 -110.5431 156° South 343 395 22,500 1,620 Climbing Salt Lake Center
04:01PM 45.3856 -110.5594 350° North 344 396 23,600 1,380 Climbing Salt Lake Center
04:01PM 45.2447 -110.4753 157° South 346 398 23,800 1,020 Climbing Salt Lake Center
04:02PM 45.3031 -110.4839 354° North 352 405 24,700 1,200 Climbing Salt Lake Center
04:02PM 45.1581 -110.4025 158° South 353 406 25,000 1,140 Climbing Salt Lake Center
04:03PM 45.2192 -110.4067 357° North 360 414 25,900 1,080 Climbing Salt Lake Center
04:03PM 45.0706 -110.3275 159° South 362 417 26,100 840 Climbing Salt Lake Center
04:04PM 45.1333 -110.3278 360° North 367 422 26,800 840 Climbing Salt Lake Center
04:04PM 44.9806 -110.2508 160° South 371 427 27,000 960 Climbing Salt Lake Center
04:05PM 44.8964 -110.1803 149° Southeast 379 436 27,900 840 Climbing Salt Lake Center
04:06PM 44.9486 -110.1572 17° North 385 443 28,700 960 Climbing Salt Lake Center
04:06PM 44.8019 -110.0969 164° South 386 444 28,900 840 Climbing Salt Lake Center
04:07PM 44.8583 -110.0425 34° Northeast 390 449 29,600 660 Climbing Salt Lake Center
04:07PM 44.7181 -109.9956 167° South 392 451 29,600 540 Level Salt Lake Center
04:08PM 44.6325 -109.8892 138° Southeast 404 465 30,200 600 Climbing Salt Lake Center
04:09PM 44.6919 -109.8306 35° Northeast 407 468 30,800 660 Climbing Salt Lake Center
04:09PM 44.5458 -109.7867 168° South 408 470 30,900 660 Climbing Salt Lake Center
04:10PM 44.6083 -109.7239 36° Northeast 406 467 31,500 540 Climbing Salt Lake Center
04:11PM 44.5267 -109.6164 137° Southeast 398 458 32,000 300 Climbing Salt Lake Center
04:12PM 44.4297 -109.4936 138° Southeast 413 475 32,200 240 Climbing Salt Lake Center
04:13PM 44.3353 -109.3769 139° Southeast 428 493 32,600 240 Climbing Salt Lake Center
04:14PM 44.2472 -109.2669 138° Southeast 427 491 32,700 180 Climbing Salt Lake Center
04:15PM 44.1564 -109.1544 138° Southeast 437 503 33,000 120 Climbing Salt Lake Center
04:16PM 44.0650 -109.0408 138° Southeast 441 507 33,000  Level Salt Lake Center
04:17PM 43.9739 -108.9264 138° Southeast 443 510 33,000  Level Salt Lake Center
04:18PM 43.8811 -108.8108 138° Southeast 449 517 33,000  Level Salt Lake Center
04:19PM 43.7711 -108.6764 139° Southeast 443 510 33,000  Level Salt Lake Center
04:20PM 43.6794 -108.5639 138° Southeast 443 510 33,000  Level Salt Lake Center
04:21PM 43.5869 -108.4531 139° Southeast 443 510 33,000  Level Salt Lake Center
04:22PM 43.4947 -108.3406 138° Southeast 443 510 33,000  Level Salt Lake Center
04:24PM 43.3986 -108.2319 141° Southeast 448 516 33,000  Level Salt Lake Center
04:25PM 43.3022 -108.1297 142° Southeast 442 509 33,000  Level Salt Lake Center
04:26PM 43.2078 -108.0294 142° Southeast 434 499 33,000  Level Salt Lake Center
04:27PM 43.0956 -107.9136 143° Southeast 425 489 33,000  Level Salt Lake Center
04:28PM 43.0025 -107.8133 142° Southeast 427 491 33,000  Level Salt Lake Center
04:29PM 42.9044 -107.7114 143° Southeast 425 489 33,000  Level Salt Lake Center
04:30PM 42.8133 -107.6175 143° Southeast 427 491 33,000  Level Salt Lake Center
04:31PM 42.7064 -107.5058 142° Southeast 433 498 33,000  Level Salt Lake Center
04:32PM 42.6144 -107.4100 142° Southeast 434 499 33,000  Level Salt Lake Center
04:33PM 42.5225 -107.3150 143° Southeast 435 501 33,000  Level Salt Lake Center
04:34PM 42.4144 -107.2050 143° Southeast 433 498 33,000  Level Salt Lake Center
04:34PM 42.3519 -107.1406 143° Southeast 436 502 33,000  Level Denver Center
04:35PM 42.2583 -107.0458 143° Southeast 439 505 33,000  Level Denver Center
04:36PM 42.1489 -106.9339 143° Southeast 440 506 33,000  Level Denver Center
04:38PM 42.0531 -106.8383 143° Southeast 446 513 33,000  Level Denver Center
04:39PM 41.9436 -106.7272 143° Southeast 441 507 33,000  Level Denver Center
04:40PM 41.8492 -106.6319 143° Southeast 442 509 33,000  Level Denver Center
04:41PM 41.7547 -106.5386 144° Southeast 440 506 33,000  Level Denver Center
04:42PM 41.6533 -106.4375 143° Southeast 440 506 33,000  Level Denver Center
04:43PM 41.5417 -106.3272 144° Southeast 445 512 33,000  Level Denver Center
04:44PM 41.4428 -106.2397 146° Southeast 446 513 33,000  Level Denver Center
04:45PM 41.3178 -106.1853 162° South 424 488 33,000  Level Denver Center
04:46PM 41.2100 -106.1403 163° South 424 488 33,000  Level Denver Center
04:47PM 41.0864 -106.0736 158° South 430 495 33,000 -300 Level Denver Center
04:48PM 40.9664 -106.0075 157° South 434 499 32,500 -1,140 Descending Denver Center
04:49PM 40.8644 -105.9047 143° Southeast 465 535 30,700 -1,800 Descending Denver Center
04:50PM 40.7969 -105.7464 119° Southeast 494 568 28,900 -1,920 Descending Denver Center
04:51PM 40.7425 -105.5814 113° Southeast 493 567 26,800 -2,160 Descending Denver Center
04:52PM 40.6806 -105.4444 121° Southeast 448 516 24,500 -2,520 Descending Denver Center
04:53PM 40.5967 -105.3553 141° Southeast 393 452 21,600 -2,880 Descending Denver Center
04:54PM 40.5022 -105.2519 140° Southeast 373 429 18,600 -2,340 Descending Denver Center
04:55PM 40.4333 -105.1703 138° Southeast 333 383 16,800 -1,680 Descending Denver Center
04:56PM 40.3753 -105.0447 121° Southeast 324 373 14,800 -1,620 Descending Denver Center
04:57PM 40.2939 -104.9878 152° Southeast 310 357 13,200 -900 Descending Denver Center
04:58PM 40.2158 -104.9350 153° Southeast 317 365 13,000 -120 Descending Denver Center
04:59PM 40.1403 -104.8836 153° Southeast 308 354 13,000  Level Denver Center
05:00PM 40.0617 -104.8300 152° Southeast 299 344 13,000  Level Denver Center
05:02PM 39.9994 -104.7878 153° Southeast 259 298 13,000 -540 Level Denver Center
05:03PM 39.9758 -104.7014 110° East 265 305 11,900 -960 Descending Denver Center
05:04PM 39.9842 -104.6128 83° East 247 284 11,100 -480 Descending Denver Center
05:05PM 39.9864 -104.5308 88° East 228 262 11,000 -840 Descending Denver Center
05:06PM 39.9822 -104.4381 93° East 236 272 9,400 -1,380 Descending Denver Center
05:07PM 39.9583 -104.3661 113° Southeast 233 268 8,200 -1,020 Descending Denver Center
05:08PM 39.8931 -104.3589 175° South 219 252 7,400 -420 Descending Denver Center
05:09PM 39.8747 -104.4331 252° West 218 251 7,400 -240 Level Denver Center
05:10PM 39.8767 -104.5086 272° West 210 242 6,900 -720 Descending Denver Center
05:11PM 39.8767 -104.5750 270° West 174 200 6,000 -780 Descending Denver Center
05:12PM 39.8775 -104.6267 271° West 160 184 5,300 -720 Descending Denver Center